sensor_id;sensor_type;location;lat;lon;timestamp;temperature;humidity
20278;DHT22;10298;49.716;17.806;2022-07-06T00:01:53;12.90;99.90
20278;DHT22;10298;49.716;17.806;2022-07-06T00:04:20;12.90;99.90
20278;DHT22;10298;49.716;17.806;2022-07-06T00:06:47;12.80;99.90
20278;DHT22;10298;49.716;17.806;2022-07-06T00:09:14;12.70;99.90
20278;DHT22;10298;49.716;17.806;2022-07-06T00:11:41;12.70;99.90
20278;DHT22;10298;49.716;17.806;2022-07-06T00:14:08;12.70;99.90
20278;DHT22;10298;49.716;17.806;2022-07-06T00:16:35;12.80;99.90
20278;DHT22;10298;49.716;17.806;2022-07-06T00:19:02;12.80;99.90
20278;DHT22;10298;49.716;17.806;2022-07-06T00:21:29;12.80;99.90
20278;DHT22;10298;49.716;17.806;2022-07-06T00:23:56;12.70;99.90
20278;DHT22;10298;49.716;17.806;2022-07-06T00:26:23;12.70;99.90
20278;DHT22;10298;49.716;17.806;2022-07-06T00:28:50;12.70;99.90
20278;DHT22;10298;49.716;17.806;2022-07-06T00:31:17;12.70;99.90
20278;DHT22;10298;49.716;17.806;2022-07-06T00:33:45;12.70;99.90
20278;DHT22;10298;49.716;17.806;2022-07-06T00:36:12;12.70;99.90
20278;DHT22;10298;49.716;17.806;2022-07-06T00:38:39;12.70;99.90
20278;DHT22;10298;49.716;17.806;2022-07-06T00:41:06;12.70;99.90
20278;DHT22;10298;49.716;17.806;2022-07-06T00:43:55;12.80;99.90
20278;DHT22;10298;49.716;17.806;2022-07-06T00:46:28;12.80;99.90
20278;DHT22;10298;49.716;17.806;2022-07-06T00:48:58;12.90;99.90
20278;DHT22;10298;49.716;17.806;2022-07-06T00:51:30;12.80;99.90
20278;DHT22;10298;49.716;17.806;2022-07-06T00:53:59;12.80;99.90
20278;DHT22;10298;49.716;17.806;2022-07-06T00:56:30;12.80;99.90
20278;DHT22;10298;49.716;17.806;2022-07-06T00:59:01;12.90;99.90
20278;DHT22;10298;49.716;17.806;2022-07-06T01:01:28;12.90;99.90
20278;DHT22;10298;49.716;17.806;2022-07-06T01:03:55;12.90;99.90
20278;DHT22;10298;49.716;17.806;2022-07-06T01:06:22;12.90;99.90
20278;DHT22;10298;49.716;17.806;2022-07-06T01:08:49;13.00;99.90
20278;DHT22;10298;49.716;17.806;2022-07-06T01:11:18;13.00;99.90
20278;DHT22;10298;49.716;17.806;2022-07-06T01:13:47;12.90;99.90
20278;DHT22;10298;49.716;17.806;2022-07-06T01:16:14;12.90;99.90
20278;DHT22;10298;49.716;17.806;2022-07-06T01:18:41;12.90;99.90
20278;DHT22;10298;49.716;17.806;2022-07-06T01:21:10;12.80;99.90
20278;DHT22;10298;49.716;17.806;2022-07-06T01:23:41;12.70;99.90
20278;DHT22;10298;49.716;17.806;2022-07-06T01:26:10;12.70;99.90
20278;DHT22;10298;49.716;17.806;2022-07-06T01:28:38;12.70;99.90
20278;DHT22;10298;49.716;17.806;2022-07-06T01:31:05;12.70;99.90
20278;DHT22;10298;49.716;17.806;2022-07-06T01:33:32;12.60;99.90
20278;DHT22;10298;49.716;17.806;2022-07-06T01:35:59;12.60;99.90
20278;DHT22;10298;49.716;17.806;2022-07-06T01:38:26;12.50;99.90
20278;DHT22;10298;49.716;17.806;2022-07-06T01:40:52;12.60;99.90
20278;DHT22;10298;49.716;17.806;2022-07-06T01:43:19;12.60;99.90
20278;DHT22;10298;49.716;17.806;2022-07-06T01:45:46;12.60;99.90
20278;DHT22;10298;49.716;17.806;2022-07-06T01:48:13;12.60;99.90
20278;DHT22;10298;49.716;17.806;2022-07-06T01:50:40;12.60;99.90
20278;DHT22;10298;49.716;17.806;2022-07-06T01:53:07;12.60;99.90
20278;DHT22;10298;49.716;17.806;2022-07-06T01:55:34;12.60;99.90
20278;DHT22;10298;49.716;17.806;2022-07-06T01:58:00;12.60;99.90
20278;DHT22;10298;49.716;17.806;2022-07-06T02:00:27;12.50;99.90
20278;DHT22;10298;49.716;17.806;2022-07-06T02:02:54;12.50;99.90
20278;DHT22;10298;49.716;17.806;2022-07-06T02:05:21;12.30;99.90
20278;DHT22;10298;49.716;17.806;2022-07-06T02:07:48;12.20;99.90
20278;DHT22;10298;49.716;17.806;2022-07-06T02:10:15;12.20;99.90
20278;DHT22;10298;49.716;17.806;2022-07-06T02:12:41;12.10;99.90
20278;DHT22;10298;49.716;17.806;2022-07-06T02:15:08;12.20;99.90
20278;DHT22;10298;49.716;17.806;2022-07-06T02:17:35;12.20;99.90
20278;DHT22;10298;49.716;17.806;2022-07-06T02:20:04;12.20;99.90
20278;DHT22;10298;49.716;17.806;2022-07-06T02:22:31;12.20;99.90
20278;DHT22;10298;49.716;17.806;2022-07-06T02:24:58;12.30;99.90
20278;DHT22;10298;49.716;17.806;2022-07-06T02:27:25;12.30;99.90
20278;DHT22;10298;49.716;17.806;2022-07-06T02:29:52;12.40;99.90
20278;DHT22;10298;49.716;17.806;2022-07-06T02:32:18;12.50;99.90
20278;DHT22;10298;49.716;17.806;2022-07-06T02:34:45;12.40;99.90
20278;DHT22;10298;49.716;17.806;2022-07-06T02:37:12;12.40;99.90
20278;DHT22;10298;49.716;17.806;2022-07-06T02:39:39;12.30;99.90
20278;DHT22;10298;49.716;17.806;2022-07-06T02:42:06;12.20;99.90
20278;DHT22;10298;49.716;17.806;2022-07-06T02:44:33;12.30;99.90
20278;DHT22;10298;49.716;17.806;2022-07-06T02:47:00;12.20;99.90
20278;DHT22;10298;49.716;17.806;2022-07-06T02:49:27;12.20;99.90
20278;DHT22;10298;49.716;17.806;2022-07-06T02:51:53;12.10;99.90
20278;DHT22;10298;49.716;17.806;2022-07-06T02:54:20;12.10;99.90
20278;DHT22;10298;49.716;17.806;2022-07-06T02:56:47;12.00;99.90
20278;DHT22;10298;49.716;17.806;2022-07-06T02:59:19;12.00;99.90
20278;DHT22;10298;49.716;17.806;2022-07-06T03:01:46;11.90;99.90
20278;DHT22;10298;49.716;17.806;2022-07-06T03:04:13;11.90;99.90
20278;DHT22;10298;49.716;17.806;2022-07-06T03:06:40;11.90;99.90
20278;DHT22;10298;49.716;17.806;2022-07-06T03:09:07;11.90;99.90
20278;DHT22;10298;49.716;17.806;2022-07-06T03:11:34;11.90;99.90
20278;DHT22;10298;49.716;17.806;2022-07-06T03:14:04;12.00;99.90
20278;DHT22;10298;49.716;17.806;2022-07-06T03:16:31;12.00;99.90
20278;DHT22;10298;49.716;17.806;2022-07-06T03:18:58;11.90;99.90
20278;DHT22;10298;49.716;17.806;2022-07-06T03:21:25;11.90;99.90
20278;DHT22;10298;49.716;17.806;2022-07-06T03:23:52;11.90;99.90
20278;DHT22;10298;49.716;17.806;2022-07-06T03:26:19;12.00;99.90
20278;DHT22;10298;49.716;17.806;2022-07-06T03:28:46;12.00;99.90
20278;DHT22;10298;49.716;17.806;2022-07-06T03:31:13;12.10;99.90
20278;DHT22;10298;49.716;17.806;2022-07-06T03:33:40;12.20;99.90
20278;DHT22;10298;49.716;17.806;2022-07-06T03:36:07;12.20;99.90
20278;DHT22;10298;49.716;17.806;2022-07-06T03:38:35;12.30;99.90
20278;DHT22;10298;49.716;17.806;2022-07-06T03:41:02;12.40;99.90
20278;DHT22;10298;49.716;17.806;2022-07-06T03:43:29;12.60;99.90
20278;DHT22;10298;49.716;17.806;2022-07-06T03:45:56;12.70;99.90
20278;DHT22;10298;49.716;17.806;2022-07-06T03:48:23;12.80;99.90
20278;DHT22;10298;49.716;17.806;2022-07-06T03:50:51;12.80;99.90
20278;DHT22;10298;49.716;17.806;2022-07-06T03:53:18;12.90;99.90
20278;DHT22;10298;49.716;17.806;2022-07-06T03:55:45;12.90;99.90
20278;DHT22;10298;49.716;17.806;2022-07-06T03:58:35;12.90;99.90
20278;DHT22;10298;49.716;17.806;2022-07-06T04:01:01;13.10;99.90
20278;DHT22;10298;49.716;17.806;2022-07-06T04:03:28;13.20;99.90
20278;DHT22;10298;49.716;17.806;2022-07-06T04:05:59;13.20;99.90
20278;DHT22;10298;49.716;17.806;2022-07-06T04:08:26;13.20;99.90
20278;DHT22;10298;49.716;17.806;2022-07-06T04:10:53;13.20;99.90
20278;DHT22;10298;49.716;17.806;2022-07-06T04:13:20;13.30;99.90
20278;DHT22;10298;49.716;17.806;2022-07-06T04:15:47;13.40;99.90
20278;DHT22;10298;49.716;17.806;2022-07-06T04:18:14;13.40;99.90
20278;DHT22;10298;49.716;17.806;2022-07-06T04:20:41;13.50;99.90
20278;DHT22;10298;49.716;17.806;2022-07-06T04:23:08;13.60;99.90
20278;DHT22;10298;49.716;17.806;2022-07-06T04:25:35;13.70;99.90
20278;DHT22;10298;49.716;17.806;2022-07-06T04:28:02;13.80;99.90
20278;DHT22;10298;49.716;17.806;2022-07-06T04:30:29;13.90;99.90
20278;DHT22;10298;49.716;17.806;2022-07-06T04:32:56;14.00;99.90
20278;DHT22;10298;49.716;17.806;2022-07-06T04:35:23;14.20;99.90
20278;DHT22;10298;49.716;17.806;2022-07-06T04:37:50;14.30;99.90
20278;DHT22;10298;49.716;17.806;2022-07-06T04:40:17;14.40;99.90
20278;DHT22;10298;49.716;17.806;2022-07-06T04:42:45;14.40;99.90
20278;DHT22;10298;49.716;17.806;2022-07-06T04:45:12;14.40;99.90
20278;DHT22;10298;49.716;17.806;2022-07-06T04:47:39;14.70;99.90
20278;DHT22;10298;49.716;17.806;2022-07-06T04:50:06;15.00;99.90
20278;DHT22;10298;49.716;17.806;2022-07-06T04:52:33;15.10;99.90
20278;DHT22;10298;49.716;17.806;2022-07-06T04:55:00;15.10;99.90
20278;DHT22;10298;49.716;17.806;2022-07-06T04:57:26;15.10;99.90
20278;DHT22;10298;49.716;17.806;2022-07-06T04:59:56;15.20;99.90
20278;DHT22;10298;49.716;17.806;2022-07-06T05:02:23;15.40;99.90
20278;DHT22;10298;49.716;17.806;2022-07-06T05:04:50;15.60;99.90
20278;DHT22;10298;49.716;17.806;2022-07-06T05:07:17;15.70;99.90
20278;DHT22;10298;49.716;17.806;2022-07-06T05:09:44;15.90;99.90
20278;DHT22;10298;49.716;17.806;2022-07-06T05:12:17;16.30;99.90
20278;DHT22;10298;49.716;17.806;2022-07-06T05:14:44;16.40;99.90
20278;DHT22;10298;49.716;17.806;2022-07-06T05:17:11;16.90;99.90
20278;DHT22;10298;49.716;17.806;2022-07-06T05:19:38;16.80;99.90
20278;DHT22;10298;49.716;17.806;2022-07-06T05:22:04;16.80;99.90
20278;DHT22;10298;49.716;17.806;2022-07-06T05:24:31;17.00;99.90
20278;DHT22;10298;49.716;17.806;2022-07-06T05:26:58;17.50;99.90
20278;DHT22;10298;49.716;17.806;2022-07-06T05:29:25;17.70;99.90
20278;DHT22;10298;49.716;17.806;2022-07-06T05:31:52;18.00;99.90
20278;DHT22;10298;49.716;17.806;2022-07-06T05:34:19;18.10;99.90
20278;DHT22;10298;49.716;17.806;2022-07-06T05:36:45;18.20;99.90
20278;DHT22;10298;49.716;17.806;2022-07-06T05:39:12;17.50;99.90
20278;DHT22;10298;49.716;17.806;2022-07-06T05:41:39;17.10;99.90
20278;DHT22;10298;49.716;17.806;2022-07-06T05:44:06;16.80;99.90
20278;DHT22;10298;49.716;17.806;2022-07-06T05:46:33;16.70;99.90
20278;DHT22;10298;49.716;17.806;2022-07-06T05:49:00;16.70;99.90
20278;DHT22;10298;49.716;17.806;2022-07-06T05:51:45;16.70;99.90
20278;DHT22;10298;49.716;17.806;2022-07-06T05:54:12;17.90;99.90
20278;DHT22;10298;49.716;17.806;2022-07-06T05:56:38;18.00;99.90
20278;DHT22;10298;49.716;17.806;2022-07-06T05:59:05;17.30;99.90
20278;DHT22;10298;49.716;17.806;2022-07-06T06:01:32;17.00;99.90
20278;DHT22;10298;49.716;17.806;2022-07-06T06:03:59;16.80;99.90
20278;DHT22;10298;49.716;17.806;2022-07-06T06:06:26;17.10;99.90
20278;DHT22;10298;49.716;17.806;2022-07-06T06:08:53;17.40;99.90
20278;DHT22;10298;49.716;17.806;2022-07-06T06:11:20;17.30;99.90
20278;DHT22;10298;49.716;17.806;2022-07-06T06:13:47;17.20;99.90
20278;DHT22;10298;49.716;17.806;2022-07-06T06:16:14;17.20;99.90
20278;DHT22;10298;49.716;17.806;2022-07-06T06:18:42;17.10;99.90
20278;DHT22;10298;49.716;17.806;2022-07-06T06:21:09;17.10;99.90
20278;DHT22;10298;49.716;17.806;2022-07-06T06:23:37;16.90;99.90
20278;DHT22;10298;49.716;17.806;2022-07-06T06:26:04;16.70;99.90
20278;DHT22;10298;49.716;17.806;2022-07-06T06:28:30;16.30;99.90
20278;DHT22;10298;49.716;17.806;2022-07-06T06:30:57;16.20;99.90
20278;DHT22;10298;49.716;17.806;2022-07-06T06:33:24;16.00;99.90
20278;DHT22;10298;49.716;17.806;2022-07-06T06:35:52;15.90;99.90
20278;DHT22;10298;49.716;17.806;2022-07-06T06:38:21;15.90;99.90
20278;DHT22;10298;49.716;17.806;2022-07-06T06:40:48;15.80;99.90
20278;DHT22;10298;49.716;17.806;2022-07-06T06:43:15;15.90;99.90
20278;DHT22;10298;49.716;17.806;2022-07-06T06:45:42;15.90;99.90
20278;DHT22;10298;49.716;17.806;2022-07-06T06:48:11;16.00;99.90
20278;DHT22;10298;49.716;17.806;2022-07-06T06:50:43;16.00;99.90
20278;DHT22;10298;49.716;17.806;2022-07-06T06:53:10;15.90;99.90
20278;DHT22;10298;49.716;17.806;2022-07-06T06:55:37;15.80;99.90
20278;DHT22;10298;49.716;17.806;2022-07-06T06:58:04;15.80;99.90
20278;DHT22;10298;49.716;17.806;2022-07-06T07:00:31;15.80;99.90
20278;DHT22;10298;49.716;17.806;2022-07-06T07:02:58;15.80;99.90
20278;DHT22;10298;49.716;17.806;2022-07-06T07:05:25;15.70;99.90
20278;DHT22;10298;49.716;17.806;2022-07-06T07:07:51;15.60;99.90
20278;DHT22;10298;49.716;17.806;2022-07-06T07:10:18;15.50;99.90
20278;DHT22;10298;49.716;17.806;2022-07-06T07:12:48;15.50;99.90
20278;DHT22;10298;49.716;17.806;2022-07-06T07:15:15;15.50;99.90
20278;DHT22;10298;49.716;17.806;2022-07-06T07:17:42;15.60;99.90
20278;DHT22;10298;49.716;17.806;2022-07-06T07:20:11;15.70;99.90
20278;DHT22;10298;49.716;17.806;2022-07-06T07:22:38;15.60;99.90
20278;DHT22;10298;49.716;17.806;2022-07-06T07:25:05;15.60;99.90
20278;DHT22;10298;49.716;17.806;2022-07-06T07:27:32;15.50;99.90
20278;DHT22;10298;49.716;17.806;2022-07-06T07:29:59;15.30;99.90
20278;DHT22;10298;49.716;17.806;2022-07-06T07:32:26;15.20;99.90
20278;DHT22;10298;49.716;17.806;2022-07-06T07:34:53;15.10;99.90
20278;DHT22;10298;49.716;17.806;2022-07-06T07:37:20;15.10;99.90
20278;DHT22;10298;49.716;17.806;2022-07-06T07:39:47;15.00;99.90
20278;DHT22;10298;49.716;17.806;2022-07-06T07:42:14;15.00;99.90
20278;DHT22;10298;49.716;17.806;2022-07-06T07:44:44;15.10;99.90
20278;DHT22;10298;49.716;17.806;2022-07-06T07:47:11;15.10;99.90
20278;DHT22;10298;49.716;17.806;2022-07-06T07:49:38;15.00;99.90
20278;DHT22;10298;49.716;17.806;2022-07-06T07:52:06;15.10;99.90
20278;DHT22;10298;49.716;17.806;2022-07-06T07:54:32;15.10;99.90
20278;DHT22;10298;49.716;17.806;2022-07-06T07:56:59;14.90;99.90
20278;DHT22;10298;49.716;17.806;2022-07-06T07:59:26;15.00;99.90
20278;DHT22;10298;49.716;17.806;2022-07-06T08:01:53;15.10;99.90
20278;DHT22;10298;49.716;17.806;2022-07-06T08:04:20;15.00;99.90
20278;DHT22;10298;49.716;17.806;2022-07-06T08:06:48;14.90;99.90
20278;DHT22;10298;49.716;17.806;2022-07-06T08:09:15;14.70;99.90
20278;DHT22;10298;49.716;17.806;2022-07-06T08:11:43;14.70;99.90
20278;DHT22;10298;49.716;17.806;2022-07-06T08:14:10;14.70;99.90
20278;DHT22;10298;49.716;17.806;2022-07-06T08:16:38;14.70;99.90
20278;DHT22;10298;49.716;17.806;2022-07-06T08:19:05;14.70;99.90
20278;DHT22;10298;49.716;17.806;2022-07-06T08:21:36;14.80;99.90
20278;DHT22;10298;49.716;17.806;2022-07-06T08:24:03;14.80;99.90
20278;DHT22;10298;49.716;17.806;2022-07-06T08:26:30;14.90;99.90
20278;DHT22;10298;49.716;17.806;2022-07-06T08:28:57;15.00;99.90
20278;DHT22;10298;49.716;17.806;2022-07-06T08:31:25;15.10;99.90
20278;DHT22;10298;49.716;17.806;2022-07-06T08:34:13;15.20;99.90
20278;DHT22;10298;49.716;17.806;2022-07-06T08:36:40;15.00;99.90
20278;DHT22;10298;49.716;17.806;2022-07-06T08:39:07;14.90;99.90
20278;DHT22;10298;49.716;17.806;2022-07-06T08:41:35;14.70;99.90
20278;DHT22;10298;49.716;17.806;2022-07-06T08:44:02;14.60;99.90
20278;DHT22;10298;49.716;17.806;2022-07-06T08:46:30;14.30;99.90
20278;DHT22;10298;49.716;17.806;2022-07-06T08:48:58;14.40;99.90
20278;DHT22;10298;49.716;17.806;2022-07-06T08:51:27;14.40;99.90
20278;DHT22;10298;49.716;17.806;2022-07-06T08:53:57;14.30;99.90
20278;DHT22;10298;49.716;17.806;2022-07-06T08:56:24;14.20;99.90
20278;DHT22;10298;49.716;17.806;2022-07-06T08:58:52;14.20;99.90
20278;DHT22;10298;49.716;17.806;2022-07-06T09:01:21;14.10;99.90
20278;DHT22;10298;49.716;17.806;2022-07-06T09:03:49;14.10;99.90
20278;DHT22;10298;49.716;17.806;2022-07-06T09:06:19;14.10;99.90
20278;DHT22;10298;49.716;17.806;2022-07-06T09:08:48;14.20;99.90
20278;DHT22;10298;49.716;17.806;2022-07-06T09:11:15;14.10;99.90
20278;DHT22;10298;49.716;17.806;2022-07-06T09:13:42;14.10;99.90
20278;DHT22;10298;49.716;17.806;2022-07-06T09:16:11;14.10;99.90
20278;DHT22;10298;49.716;17.806;2022-07-06T09:18:58;14.20;99.90
20278;DHT22;10298;49.716;17.806;2022-07-06T09:21:27;14.30;99.90
20278;DHT22;10298;49.716;17.806;2022-07-06T09:24:01;14.30;99.90
20278;DHT22;10298;49.716;17.806;2022-07-06T09:26:29;14.30;99.90
20278;DHT22;10298;49.716;17.806;2022-07-06T09:28:57;14.40;99.90
20278;DHT22;10298;49.716;17.806;2022-07-06T09:31:26;14.50;99.90
20278;DHT22;10298;49.716;17.806;2022-07-06T09:34:02;14.80;99.90
20278;DHT22;10298;49.716;17.806;2022-07-06T09:39:26;15.00;99.90
20278;DHT22;10298;49.716;17.806;2022-07-06T09:42:00;15.20;99.90
20278;DHT22;10298;49.716;17.806;2022-07-06T09:44:29;15.30;99.90
20278;DHT22;10298;49.716;17.806;2022-07-06T09:46:59;15.20;99.90
20278;DHT22;10298;49.716;17.806;2022-07-06T09:49:26;15.50;99.90
20278;DHT22;10298;49.716;17.806;2022-07-06T09:51:58;15.70;99.90
20278;DHT22;10298;49.716;17.806;2022-07-06T09:54:26;16.00;99.90
20278;DHT22;10298;49.716;17.806;2022-07-06T09:56:54;16.20;99.90
20278;DHT22;10298;49.716;17.806;2022-07-06T09:59:23;16.30;99.90
20278;DHT22;10298;49.716;17.806;2022-07-06T10:01:54;16.40;99.90
20278;DHT22;10298;49.716;17.806;2022-07-06T10:04:24;16.60;99.90
20278;DHT22;10298;49.716;17.806;2022-07-06T10:06:51;16.80;99.90
20278;DHT22;10298;49.716;17.806;2022-07-06T10:09:20;17.20;99.90
20278;DHT22;10298;49.716;17.806;2022-07-06T10:11:50;17.80;99.90
20278;DHT22;10298;49.716;17.806;2022-07-06T10:14:20;18.40;99.90
20278;DHT22;10298;49.716;17.806;2022-07-06T10:16:48;18.60;99.90
20278;DHT22;10298;49.716;17.806;2022-07-06T10:19:18;18.80;99.90
20278;DHT22;10298;49.716;17.806;2022-07-06T10:21:45;19.40;99.90
20278;DHT22;10298;49.716;17.806;2022-07-06T10:24:12;19.60;99.90
20278;DHT22;10298;49.716;17.806;2022-07-06T10:26:41;19.30;99.90
20278;DHT22;10298;49.716;17.806;2022-07-06T10:29:09;18.60;99.90
20278;DHT22;10298;49.716;17.806;2022-07-06T10:31:43;18.50;99.90
20278;DHT22;10298;49.716;17.806;2022-07-06T10:34:12;19.00;99.90
20278;DHT22;10298;49.716;17.806;2022-07-06T10:36:41;18.80;99.90
20278;DHT22;10298;49.716;17.806;2022-07-06T10:39:09;18.60;99.90
20278;DHT22;10298;49.716;17.806;2022-07-06T10:41:55;18.50;99.90
20278;DHT22;10298;49.716;17.806;2022-07-06T10:44:24;18.70;99.90
20278;DHT22;10298;49.716;17.806;2022-07-06T10:46:58;19.10;99.90
20278;DHT22;10298;49.716;17.806;2022-07-06T10:49:28;18.90;99.90
20278;DHT22;10298;49.716;17.806;2022-07-06T10:52:18;18.60;99.90
20278;DHT22;10298;49.716;17.806;2022-07-06T10:54:46;18.40;99.90
20278;DHT22;10298;49.716;17.806;2022-07-06T10:57:13;18.50;99.90
20278;DHT22;10298;49.716;17.806;2022-07-06T11:00:02;18.50;99.90
20278;DHT22;10298;49.716;17.806;2022-07-06T11:02:38;17.90;99.90
20278;DHT22;10298;49.716;17.806;2022-07-06T11:05:11;18.20;99.90
20278;DHT22;10298;49.716;17.806;2022-07-06T11:07:50;18.80;99.90
20278;DHT22;10298;49.716;17.806;2022-07-06T11:10:17;19.20;99.90
20278;DHT22;10298;49.716;17.806;2022-07-06T11:12:47;19.50;99.90
20278;DHT22;10298;49.716;17.806;2022-07-06T11:16:07;19.60;99.90
20278;DHT22;10298;49.716;17.806;2022-07-06T11:18:27;19.50;99.90
20278;DHT22;10298;49.716;17.806;2022-07-06T11:23:43;19.90;99.90
20278;DHT22;10298;49.716;17.806;2022-07-06T11:26:11;19.90;99.90
20278;DHT22;10298;49.716;17.806;2022-07-06T11:28:38;20.30;99.90
20278;DHT22;10298;49.716;17.806;2022-07-06T11:31:05;20.80;99.90
20278;DHT22;10298;49.716;17.806;2022-07-06T11:33:33;20.70;99.90
20278;DHT22;10298;49.716;17.806;2022-07-06T11:36:20;20.90;99.90
20278;DHT22;10298;49.716;17.806;2022-07-06T11:38:49;21.20;99.90
20278;DHT22;10298;49.716;17.806;2022-07-06T11:41:17;21.10;99.90
20278;DHT22;10298;49.716;17.806;2022-07-06T11:43:46;20.40;99.90
20278;DHT22;10298;49.716;17.806;2022-07-06T11:46:25;20.00;99.90
20278;DHT22;10298;49.716;17.806;2022-07-06T11:49:27;19.90;99.90
20278;DHT22;10298;49.716;17.806;2022-07-06T11:51:47;19.70;99.90
20278;DHT22;10298;49.716;17.806;2022-07-06T11:54:19;19.30;99.90
20278;DHT22;10298;49.716;17.806;2022-07-06T11:56:57;19.40;99.90
20278;DHT22;10298;49.716;17.806;2022-07-06T11:59:28;19.90;99.90
20278;DHT22;10298;49.716;17.806;2022-07-06T12:02:05;20.30;99.90
20278;DHT22;10298;49.716;17.806;2022-07-06T12:04:34;20.00;99.90
20278;DHT22;10298;49.716;17.806;2022-07-06T12:07:03;20.10;99.90
20278;DHT22;10298;49.716;17.806;2022-07-06T12:09:32;20.10;99.90
20278;DHT22;10298;49.716;17.806;2022-07-06T12:11:59;20.80;99.90
20278;DHT22;10298;49.716;17.806;2022-07-06T12:14:32;20.60;99.90
20278;DHT22;10298;49.716;17.806;2022-07-06T12:17:13;20.50;99.90
20278;DHT22;10298;49.716;17.806;2022-07-06T12:19:41;20.30;99.90
20278;DHT22;10298;49.716;17.806;2022-07-06T12:22:10;20.00;99.90
20278;DHT22;10298;49.716;17.806;2022-07-06T12:24:42;19.80;99.90
20278;DHT22;10298;49.716;17.806;2022-07-06T12:27:16;19.50;99.90
20278;DHT22;10298;49.716;17.806;2022-07-06T12:29:44;19.50;99.90
20278;DHT22;10298;49.716;17.806;2022-07-06T12:32:21;19.70;99.90
20278;DHT22;10298;49.716;17.806;2022-07-06T12:35:22;20.20;99.90
20278;DHT22;10298;49.716;17.806;2022-07-06T12:37:55;20.60;99.90
20278;DHT22;10298;49.716;17.806;2022-07-06T12:40:26;21.00;99.90
20278;DHT22;10298;49.716;17.806;2022-07-06T12:42:56;21.50;99.90
20278;DHT22;10298;49.716;17.806;2022-07-06T12:45:27;21.40;99.90
20278;DHT22;10298;49.716;17.806;2022-07-06T12:48:01;21.30;99.90
20278;DHT22;10298;49.716;17.806;2022-07-06T12:50:36;20.80;99.90
20278;DHT22;10298;49.716;17.806;2022-07-06T12:53:05;20.80;99.90
20278;DHT22;10298;49.716;17.806;2022-07-06T12:55:32;21.10;99.90
20278;DHT22;10298;49.716;17.806;2022-07-06T12:57:59;21.00;99.90
20278;DHT22;10298;49.716;17.806;2022-07-06T13:00:26;20.90;99.90
20278;DHT22;10298;49.716;17.806;2022-07-06T13:02:53;20.80;99.90
20278;DHT22;10298;49.716;17.806;2022-07-06T13:05:49;21.00;99.90
20278;DHT22;10298;49.716;17.806;2022-07-06T13:08:16;21.40;99.90
20278;DHT22;10298;49.716;17.806;2022-07-06T13:10:43;21.00;99.90
20278;DHT22;10298;49.716;17.806;2022-07-06T13:13:11;20.90;99.90
20278;DHT22;10298;49.716;17.806;2022-07-06T13:15:41;20.70;99.90
20278;DHT22;10298;49.716;17.806;2022-07-06T13:18:08;21.00;99.90
20278;DHT22;10298;49.716;17.806;2022-07-06T13:20:40;21.00;99.90
20278;DHT22;10298;49.716;17.806;2022-07-06T13:23:08;21.30;99.90
20278;DHT22;10298;49.716;17.806;2022-07-06T13:25:35;21.20;99.90
20278;DHT22;10298;49.716;17.806;2022-07-06T13:28:01;21.00;99.90
20278;DHT22;10298;49.716;17.806;2022-07-06T13:30:28;20.70;99.90
20278;DHT22;10298;49.716;17.806;2022-07-06T13:32:56;20.50;99.90
20278;DHT22;10298;49.716;17.806;2022-07-06T13:35:23;20.70;99.90
20278;DHT22;10298;49.716;17.806;2022-07-06T13:37:50;20.80;99.90
20278;DHT22;10298;49.716;17.806;2022-07-06T13:40:17;20.70;99.90
20278;DHT22;10298;49.716;17.806;2022-07-06T13:42:44;20.80;99.90
20278;DHT22;10298;49.716;17.806;2022-07-06T13:45:12;21.20;99.90
20278;DHT22;10298;49.716;17.806;2022-07-06T13:47:39;21.60;99.90
20278;DHT22;10298;49.716;17.806;2022-07-06T13:50:06;21.90;99.90
20278;DHT22;10298;49.716;17.806;2022-07-06T13:52:33;22.20;99.90
20278;DHT22;10298;49.716;17.806;2022-07-06T13:55:00;22.20;99.90
20278;DHT22;10298;49.716;17.806;2022-07-06T13:57:28;21.60;99.90
20278;DHT22;10298;49.716;17.806;2022-07-06T13:59:55;22.10;99.90
20278;DHT22;10298;49.716;17.806;2022-07-06T14:02:22;22.00;99.90
20278;DHT22;10298;49.716;17.806;2022-07-06T14:04:49;22.00;99.90
20278;DHT22;10298;49.716;17.806;2022-07-06T14:07:16;21.60;99.90
20278;DHT22;10298;49.716;17.806;2022-07-06T14:09:46;21.20;99.90
20278;DHT22;10298;49.716;17.806;2022-07-06T14:12:18;20.60;99.90
20278;DHT22;10298;49.716;17.806;2022-07-06T14:14:46;20.30;99.90
20278;DHT22;10298;49.716;17.806;2022-07-06T14:17:12;20.60;99.90
20278;DHT22;10298;49.716;17.806;2022-07-06T14:19:39;20.70;99.90
20278;DHT22;10298;49.716;17.806;2022-07-06T14:22:06;20.70;99.90
20278;DHT22;10298;49.716;17.806;2022-07-06T14:24:33;20.60;99.90
20278;DHT22;10298;49.716;17.806;2022-07-06T14:27:01;20.70;99.90
20278;DHT22;10298;49.716;17.806;2022-07-06T14:29:29;20.90;99.90
20278;DHT22;10298;49.716;17.806;2022-07-06T14:31:56;20.90;99.90
20278;DHT22;10298;49.716;17.806;2022-07-06T14:34:23;20.80;99.90
20278;DHT22;10298;49.716;17.806;2022-07-06T14:36:50;20.70;99.90
20278;DHT22;10298;49.716;17.806;2022-07-06T14:39:17;20.60;99.90
20278;DHT22;10298;49.716;17.806;2022-07-06T14:41:44;20.00;99.90
20278;DHT22;10298;49.716;17.806;2022-07-06T14:44:11;19.80;99.90
20278;DHT22;10298;49.716;17.806;2022-07-06T14:46:38;19.40;99.90
20278;DHT22;10298;49.716;17.806;2022-07-06T14:49:06;19.20;99.90
20278;DHT22;10298;49.716;17.806;2022-07-06T14:51:32;18.80;99.90
20278;DHT22;10298;49.716;17.806;2022-07-06T14:53:59;18.20;99.90
20278;DHT22;10298;49.716;17.806;2022-07-06T14:56:26;18.00;99.90
20278;DHT22;10298;49.716;17.806;2022-07-06T14:58:53;17.70;99.90
20278;DHT22;10298;49.716;17.806;2022-07-06T15:01:40;17.50;99.90
20278;DHT22;10298;49.716;17.806;2022-07-06T15:04:07;17.60;99.90
20278;DHT22;10298;49.716;17.806;2022-07-06T15:06:34;17.30;99.90
20278;DHT22;10298;49.716;17.806;2022-07-06T15:09:20;17.00;99.90
20278;DHT22;10298;49.716;17.806;2022-07-06T15:11:47;16.90;99.90
20278;DHT22;10298;49.716;17.806;2022-07-06T15:14:14;16.90;99.90
20278;DHT22;10298;49.716;17.806;2022-07-06T15:16:43;17.00;99.90
20278;DHT22;10298;49.716;17.806;2022-07-06T15:19:11;17.10;99.90
20278;DHT22;10298;49.716;17.806;2022-07-06T15:21:37;17.10;99.90
20278;DHT22;10298;49.716;17.806;2022-07-06T15:24:05;17.10;99.90
20278;DHT22;10298;49.716;17.806;2022-07-06T15:26:32;17.00;99.90
20278;DHT22;10298;49.716;17.806;2022-07-06T15:28:59;16.70;99.90
20278;DHT22;10298;49.716;17.806;2022-07-06T15:31:26;16.60;99.90